• Join FlightAware (Why Join?)
  • Login
  • US Flag 
08:19PM EDT


 

Airport Tracker/Info


-or-


 

Live Flight TrackerFlight Track Log ✈ CFS820 ✈ 07-Nov-2013 ✈ KGTF - KMSO

Flight Track Log - Related Links

Times and Time Zones

All times are in EST time to prevent confusion due to time zone crossing. See the CFS820 flight status page for this flight to view local times or setup timezone preferences in your user account.

Time Position Orientation Groundspeed Altitude Reporting Facility
EST Latitude Longitude Course Direction KTS MPH feet Rate Location/Type
09:51AM 47.4731 -111.3833 253° West 132 152 4,800  Level Salt Lake Center
09:52AM 47.4561 -111.4308 242° Southwest 135 155 5,700 1,020 Climbing Salt Lake Center
09:53AM 47.4361 -111.4869 242° Southwest 144 166 7,000 1,380 Climbing Salt Lake Center
09:54AM 47.4208 -111.5528 251° West 158 182 8,600 1,440 Climbing Salt Lake Center
09:55AM 47.4094 -111.6150 255° West 160 184 10,000 1,260 Climbing Salt Lake Center
09:56AM 47.3983 -111.6800 256° West 161 185 11,300 1,260 Climbing Salt Lake Center
09:57AM 47.3950 -111.8168 253° West  Level Estimated
09:57AM 47.3872 -111.7453 256° West 163 188 12,700  Level Salt Lake Center
09:58AM 47.3747 -111.8125 255° West 165 190 13,900 600 Climbing Salt Lake Center
10:00AM 47.3597 -111.8853 253° West 174 200 14,000  Climbing Salt Lake Center
10:01AM 47.3394 -111.9906 254° West 209 241 14,000  Level Salt Lake Center
10:02AM 47.3211 -112.0822 254° West 228 262 14,000  Level Salt Lake Center
10:03AM 47.3033 -112.1725 254° West 230 265 14,000  Level Salt Lake Center
10:04AM 47.2853 -112.2647 254° West 233 268 14,000  Level Salt Lake Center
10:05AM 47.2658 -112.3567 253° West 235 270 14,000  Level Salt Lake Center
10:06AM 47.2475 -112.4500 254° West 238 274 14,000  Level Salt Lake Center
10:07AM 47.2308 -112.5422 255° West 235 270 14,000  Level Salt Lake Center
10:08AM 47.2125 -112.6336 254° West 233 268 14,000  Level Salt Lake Center
10:09AM 47.1897 -112.7406 253° West 231 266 14,000  Level Salt Lake Center
10:10AM 47.1717 -112.8286 253° West 227 261 14,000  Level Salt Lake Center
10:11AM 47.1542 -112.9175 254° West 227 261 14,000  Level Salt Lake Center
10:12AM 47.1358 -113.0022 252° West 229 264 14,000  Level Salt Lake Center
10:13AM 47.1183 -113.0900 254° West 226 260 14,000  Level Salt Lake Center
10:14AM 47.1006 -113.1769 253° West 223 257 14,000  Level Salt Lake Center
10:15AM 47.0772 -113.2856 253° West 231 266 14,000  Level Salt Lake Center
10:16AM 47.0586 -113.3733 253° West 228 262 14,000 -540 Level Salt Lake Center
10:17AM 47.0072 -113.4397 221° Southwest 255 293 13,000 -1,020 Descending Salt Lake Center
10:18AM 46.9567 -113.5022 220° Southwest 243 280 12,000 -1,020 Descending Salt Lake Center
10:19AM 46.9003 -113.5767 222° Southwest 245 282 11,000 -540 Descending Salt Lake Center
10:20AM 46.8525 -113.6392 222° Southwest 234 269 11,000  Level Salt Lake Center
10:21AM 46.8028 -113.7047 222° Southwest 226 260 11,000 -360 Level Salt Lake Center
10:22AM 46.7653 -113.7806 234° Southwest 232 267 10,300 -840 Descending Salt Lake Center
10:23AM 46.7300 -113.8614 238° Southwest 236 272 9,300 -660 Descending Salt Lake Center
10:24AM 46.7006 -113.9369 240° Southwest 218 251 9,000 -420 Descending Salt Lake Center
10:25AM 46.6889 -114.0131 257° West 190 219 8,500 -480 Descending Salt Lake Center
10:26AM 46.7331 -114.0486 331° Northwest 210 242 8,100 -780 Descending Salt Lake Center
10:27AM 46.7961 -114.0533 357° North 213 245 7,000 -1,140 Descending Salt Lake Center
10:28AM 46.8497 -114.0433 North 198 228 5,800 -1,380 Descending Salt Lake Center
10:29AM 46.8850 -114.0383 North 142 163 4,200 -1,320 Descending Salt Lake Center
10:30AM 46.9097 -114.0811 310° West 130 150 3,200 -1,020 Descending Salt Lake Center